Time;durP1;ratioP1;P1;durP2;ratioP2;P2;SDS_P1;SDS_P2;PMS_P1;PMS_P2;Temp;Humidity;BMP_temperature;BMP_pressure;BME280_temperature;BME280_humidity;BME280_pressure;Samples;Min_cycle;Max_cycle;Signal;HPM_P1;HPM_P2
2022/03/21 00:10:01;;;;;;;4.93;3.03;;;;;;;;;;20903341;28;20198;-69
2022/03/21 00:20:03;;;;;;;4.50;2.70;;;;;;;;;;20904533;28;20210;-70
2022/03/21 00:30:06;;;;;;;4.20;2.83;;;10.00;99.90;;;;;;20902670;28;20210;-70
2022/03/21 00:40:09;;;;;;;7.50;3.00;;;;;;;;;;20926103;28;20259;-69
2022/03/21 00:50:12;;;;;;;5.97;2.90;;;9.80;99.90;;;;;;20943062;28;20201;-70
2022/03/21 01:00:14;;;;;;;4.13;2.63;;;9.50;99.90;;;;;;20926706;28;20566;-70
2022/03/21 01:10:18;;;;;;;4.80;2.70;;;9.70;99.90;;;;;;20913406;28;20639;-69
2022/03/21 01:20:21;;;;;;;5.80;3.10;;;9.50;99.90;;;;;;20916468;28;20275;-69
2022/03/21 01:30:22;;;;;;;4.87;2.47;;;;;;;;;;20915698;28;20212;-70
2022/03/21 01:40:24;;;;;;;5.57;2.90;;;;;;;;;;20914542;28;20256;-69
2022/03/21 01:50:26;;;;;;;4.50;2.87;;;;;;;;;;20913361;28;20202;-70
2022/03/21 02:00:28;;;;;;;4.80;2.93;;;9.20;99.90;;;;;;20896347;28;20209;-70
2022/03/21 02:10:30;;;;;;;4.13;2.97;;;9.10;99.90;;;;;;20895676;28;20582;-69
2022/03/21 02:20:34;;;;;;;4.37;2.70;;;9.10;99.90;;;;;;20911787;28;20193;-69
2022/03/21 02:30:40;;;;;;;4.57;2.43;;;9.00;99.90;;;;;;20926369;28;20232;-69
2022/03/21 02:40:42;;;;;;;5.67;2.47;;;;;;;;;;20816324;22;20239;-64
2022/03/21 02:50:59;;;;;;;4.90;2.83;;;8.90;99.90;;;;;;20692251;28;20223;-64
2022/03/21 03:01:18;;;;;;;3.70;2.40;;;9.00;99.90;;;;;;20721202;28;20237;-65
2022/03/21 03:11:20;;;;;;;4.47;2.77;;;;;;;;;;20728670;28;20253;-64
2022/03/21 03:21:23;;;;;;;3.90;2.70;;;;;;;;;;20729069;28;20763;-64
2022/03/21 03:31:25;;;;;;;2.80;1.93;;;9.10;99.90;;;;;;20743307;28;20230;-64
2022/03/21 03:41:27;;;;;;;4.70;3.07;;;;;;;;;;20694756;28;20281;-64
2022/03/21 03:51:30;;;;;;;4.53;2.93;;;;;;;;;;20710092;28;20290;-64
2022/03/21 04:01:32;;;;;;;5.77;2.90;;;;;;;;;;20694110;28;20212;-64
2022/03/21 04:11:34;;;;;;;4.80;2.97;;;;;;;;;;20693196;28;20223;-65
2022/03/21 04:21:36;;;;;;;4.20;2.57;;;;;;;;;;20709219;28;20212;-65
2022/03/21 04:31:38;;;;;;;5.23;2.43;;;;;;;;;;20728929;28;20215;-65
2022/03/21 04:41:40;;;;;;;3.37;2.37;;;;;;;;;;20708253;28;20227;-64
2022/03/21 04:51:41;;;;;;;3.40;2.00;;;;;;;;;;20687913;28;20598;-65
2022/03/21 05:01:43;;;;;;;3.63;2.40;;;;;;;;;;20722695;28;20215;-65
2022/03/21 05:11:45;;;;;;;2.53;1.87;;;;;;;;;;20706849;28;20220;-65
2022/03/21 05:21:47;;;;;;;3.47;2.30;;;;;;;;;;20738395;28;20752;-66
2022/03/21 05:31:49;;;;;;;3.60;2.10;;;;;;;;;;20702850;28;20619;-65
2022/03/21 05:41:52;;;;;;;3.47;2.00;;;;;;;;;;20735685;28;20242;-65
2022/03/21 05:51:54;;;;;;;4.50;2.17;;;;;;;;;;20703549;28;20223;-65
2022/03/21 06:01:56;;;;;;;4.07;2.87;;;;;;;;;;20702198;28;20258;-65
2022/03/21 06:11:58;;;;;;;3.53;1.93;;;;;;;;;;20734069;28;20760;-64
2022/03/21 06:22:00;;;;;;;2.77;1.70;;;;;;;;;;20721437;28;20278;-64
2022/03/21 06:32:01;;;;;;;3.43;2.10;;;;;;;;;;20746361;28;20219;-64
2022/03/21 06:42:04;;;;;;;4.13;2.00;;;;;;;;;;20731929;28;20633;-64
2022/03/21 06:52:08;;;;;;;2.30;1.80;;;;;;;;;;20698926;28;20227;-65
2022/03/21 07:02:10;;;;;;;3.53;2.13;;;;;;;;;;20698724;28;20262;-65
2022/03/21 07:12:11;;;;;;;3.13;1.83;;;;;;;;;;20730189;28;20250;-64
2022/03/21 07:22:14;;;;;;;3.67;1.70;;;9.50;99.90;;;;;;20696722;28;20215;-64
2022/03/21 07:32:17;;;;;;;2.67;1.67;;;;;;;;;;20693361;28;20587;-64
2022/03/21 07:42:19;;;;;;;3.70;1.90;;;;;;;;;;20726356;28;20211;-64
2022/03/21 07:52:21;;;;;;;2.77;1.70;;;;;;;;;;20716908;28;20686;-64
2022/03/21 08:02:25;;;;;;;2.53;1.50;;;;;;;;;;20724510;28;20223;-64
2022/03/21 08:12:27;;;;;;;3.27;1.90;;;;;;;;;;20693716;28;20238;-64
2022/03/21 08:22:29;;;;;;;5.70;3.00;;;;;;;;;;20740943;28;20285;-65
2022/03/21 08:32:31;;;;;;;4.40;2.00;;;;;;;;;;20668476;28;20224;-65
2022/03/21 08:42:33;;;;;;;3.63;2.07;;;11.70;99.90;;;;;;20725741;23;20617;-72
2022/03/21 08:52:35;;;;;;;4.37;2.30;;;;;;;;;;20741466;28;20585;-73
2022/03/21 09:02:40;;;;;;;2.97;2.13;;;;;;;;;;20726485;28;20682;-73
2022/03/21 09:12:43;;;;;;;4.00;2.57;;;;;;;;;;20726903;28;20219;-73
2022/03/21 09:22:44;;;;;;;5.50;2.90;;;;;;;;;;20736864;28;20211;-72
2022/03/21 09:32:46;;;;;;;3.10;2.10;;;;;;;;;;20747779;28;20540;-73
2022/03/21 09:42:48;;;;;;;4.87;2.90;;;;;;;;;;20739537;28;20590;-73
2022/03/21 09:52:50;;;;;;;4.07;2.67;;;13.90;99.90;;;;;;20748412;28;20211;-73
2022/03/21 10:02:52;;;;;;;3.37;2.07;;;14.20;99.90;;;;;;20743243;28;20211;-73
2022/03/21 10:12:54;;;;;;;7.07;2.53;;;;;;;;;;20747434;28;20242;-73
2022/03/21 10:22:56;;;;;;;3.63;2.33;;;;;;;;;;20739303;28;20269;-73
2022/03/21 10:32:58;;;;;;;4.27;2.57;;;;;;;;;;20743578;28;20220;-73
2022/03/21 10:43:05;;;;;;;4.43;2.87;;;;;;;;;;20744236;28;20239;-73
2022/03/21 10:53:09;;;;;;;4.57;2.93;;;;;;;;;;20744615;28;20223;-73
2022/03/21 11:03:16;;;;;;;3.90;2.73;;;16.00;99.90;;;;;;20748177;28;20211;-73
2022/03/21 11:13:19;;;;;;;4.07;2.47;;;16.30;99.90;;;;;;20735752;28;20645;-73
2022/03/21 11:23:21;;;;;;;4.07;2.57;;;;;;;;;;20739826;28;20261;-73
2022/03/21 11:34:15;;;;;;;5.23;2.80;;;16.40;99.90;;;;;;20739903;28;20219;-73
2022/03/21 11:44:17;;;;;;;4.07;2.20;;;;;;;;;;20590851;28;20586;-73
2022/03/21 11:54:36;;;;;;;4.27;2.67;;;16.90;99.90;;;;;;20736289;28;20235;-72
2022/03/21 12:04:40;;;;;;;3.50;2.67;;;16.70;99.90;;;;;;20733671;28;20690;-72
2022/03/21 12:14:43;;;;;;;3.97;2.67;;;;;;;;;;20734875;28;20215;-72
2022/03/21 12:24:48;;;;;;;3.83;2.43;;;17.00;99.90;;;;;;20738542;28;20581;-73
2022/03/21 12:34:51;;;;;;;4.67;3.27;;;17.30;99.90;;;;;;20742890;28;20277;-73
2022/03/21 12:44:53;;;;;;;5.50;2.80;;;;;;;;;;20753897;28;20211;-73
2022/03/21 12:54:57;;;;;;;5.73;3.00;;;;;;;;;;20752515;28;20634;-73
2022/03/21 13:15:24;;;;;;;6.30;2.67;;;17.70;99.90;;;;;;20742640;28;20273;-73
2022/03/21 13:25:30;;;;;;;3.63;2.17;;;18.00;99.90;;;;;;20752039;28;20199;-72
2022/03/21 13:35:32;;;;;;;3.17;2.17;;;17.60;99.90;;;;;;20752214;28;20249;-73
2022/03/21 13:45:41;;;;;;;4.33;2.40;;;17.90;99.90;;;;;;20750449;28;20679;-73
2022/03/21 13:55:43;;;;;;;2.70;1.90;;;;;;;;;;20749032;28;20586;-73
2022/03/21 14:05:45;;;;;;;2.70;1.90;;;;;;;;;;20747459;28;20203;-73
2022/03/21 14:15:48;;;;;;;3.67;2.20;;;18.60;99.90;;;;;;20763641;28;20223;-73
2022/03/21 14:36:10;;;;;;;3.27;1.93;;;;;;;;;;20776781;22;20292;-65
2022/03/21 14:46:13;;;;;;;4.13;1.73;;;17.90;99.90;;;;;;20715967;28;20215;-66
2022/03/21 14:56:14;;;;;;;4.37;1.77;;;;;;;;;;20715186;28;20222;-65
2022/03/21 15:06:17;;;;;;;4.23;2.20;;;;;;;;;;20747978;28;20274;-66
2022/03/21 15:16:19;;;;;;;2.93;1.80;;;;;;;;;;20714304;28;20215;-65
2022/03/21 15:26:21;;;;;;;3.17;2.07;;;;;;;;;;20763584;28;20276;-65
2022/03/21 15:46:43;;;;;;;5.77;3.17;;;;;;;;;;20763511;28;20292;-65
2022/03/21 15:56:45;;;;;;;5.27;3.37;;;;;;;;;;20678897;28;20219;-65
2022/03/21 16:06:47;;;;;;;5.10;3.00;;;;;;;;;;20701464;28;20281;-65
2022/03/21 16:16:49;;;;;;;4.80;2.80;;;;;;;;;;20708540;28;20218;-65
2022/03/21 16:26:54;;;;;;;5.03;3.13;;;16.50;99.90;;;;;;20704689;28;20293;-66
2022/03/21 16:36:55;;;;;;;4.00;3.00;;;;;;;;;;20749443;28;20211;-65
2022/03/21 16:46:57;;;;;;;7.10;3.13;;;;;;;;;;20708177;28;20211;-65
2022/03/21 16:57:00;;;;;;;4.07;2.83;;;;;;;;;;20711125;28;20234;-65
2022/03/21 17:07:03;;;;;;;9.03;3.33;;;17.70;99.90;;;;;;20710998;28;20211;-65
2022/03/21 17:17:05;;;;;;;5.13;2.90;;;15.90;99.90;;;;;;20690369;28;20219;-65
2022/03/21 17:27:07;;;;;;;4.57;3.23;;;12.60;99.90;;;;;;20717739;28;20273;-65
2022/03/21 17:37:09;;;;;;;7.53;4.03;;;15.60;99.90;;;;;;20726310;28;20223;-65
2022/03/21 17:47:11;;;;;;;7.37;4.03;;;;;;;;;;20723290;28;20603;-65
2022/03/21 17:57:14;;;;;;;7.03;3.83;;;;;;;;;;20722513;28;20249;-65
2022/03/21 18:07:16;;;;;;;5.80;3.63;;;;;;;;;;20714885;28;20207;-65
2022/03/21 18:17:19;;;;;;;6.13;3.70;;;;;;;;;;20716696;28;20262;-65
2022/03/21 18:27:21;;;;;;;6.37;3.57;;;;;;;;;;20756721;28;20610;-65
2022/03/21 18:37:23;;;;;;;8.87;3.70;;;;;;;;;;20758363;28;20284;-65
2022/03/21 18:47:26;;;;;;;8.20;4.30;;;;;;;;;;20785872;28;20222;-65
2022/03/21 18:57:28;;;;;;;8.10;3.40;;;;;;;;;;20716557;28;20230;-65
2022/03/21 19:07:30;;;;;;;11.63;4.67;;;;;;;;;;20793994;28;20227;-65
2022/03/21 19:17:33;;;;;;;8.17;4.27;;;;;;;;;;20775927;28;20633;-65
2022/03/21 19:27:36;;;;;;;11.33;3.90;;;;;;;;;;20731998;28;20286;-65
2022/03/21 19:37:39;;;;;;;6.50;3.83;;;;;;;;;;20734646;28;20289;-65
2022/03/21 19:47:46;;;;;;;7.07;3.97;;;;;;;;;;20693994;28;20590;-65
2022/03/21 19:57:49;;;;;;;4.77;3.47;;;;;;;;;;20725577;28;20222;-65
2022/03/21 20:07:51;;;;;;;7.97;3.40;;;;;;;;;;20771344;28;20566;-65
2022/03/21 20:17:57;;;;;;;6.70;3.37;;;;;;;;;;20755691;28;20258;-65
2022/03/21 20:28:00;;;;;;;6.47;3.97;;;16.60;99.90;;;;;;20787676;28;20211;-65
2022/03/21 20:38:03;;;;;;;5.47;3.87;;;;;;;;;;20753934;28;20219;-65
2022/03/21 20:48:07;;;;;;;4.97;3.53;;;13.50;99.90;;;;;;20766668;28;21041;-64
2022/03/21 20:58:10;;;;;;;4.97;3.00;;;;;;;;;;20786484;22;20264;-71
2022/03/21 21:08:33;;;;;;;4.70;3.23;;;;;;;;;;20826973;28;20280;-70
2022/03/21 21:18:34;;;;;;;3.50;2.63;;;;;;;;;;20834738;28;20261;-70
2022/03/21 21:28:36;;;;;;;5.10;2.97;;;;;;;;;;20834708;28;20256;-70
2022/03/21 21:38:38;;;;;;;4.77;3.17;;;;;;;;;;20834047;28;20206;-70
2022/03/21 21:48:45;;;;;;;4.10;3.00;;;;;;;;;;20832261;28;20211;-70
2022/03/21 21:58:47;;;;;;;4.83;3.03;;;;;;;;;;20832147;28;20222;-70
2022/03/21 22:08:48;;;;;;;5.67;3.67;;;;;;;;;;20828806;28;20257;-71
2022/03/21 22:18:51;;;;;;;6.13;3.23;;;;;;;;;;20830646;28;20215;-71
2022/03/21 22:28:52;;;;;;;8.57;4.53;;;;;;;;;;20830275;28;20567;-70
2022/03/21 22:38:54;;;;;;;5.30;3.03;;;;;;;;;;20831490;28;20238;-72
2022/03/21 22:48:56;;;;;;;6.40;2.63;;;;;;;;;;20831648;28;20202;-71
2022/03/21 22:58:57;;;;;;;7.17;3.60;;;;;;;;;;20828541;28;20215;-71
2022/03/21 23:08:59;;;;;;;5.00;3.00;;;;;;;;;;20825102;28;20206;-72
2022/03/21 23:19:02;;;;;;;4.53;2.23;;;;;;;;;;20827011;28;20218;-72
2022/03/21 23:29:03;;;;;;;3.23;2.27;;;;;;;;;;20754443;28;20596;-71
2022/03/21 23:39:05;;;;;;;3.67;2.47;;;;;;;;;;20726989;28;20223;-72
2022/03/21 23:49:07;;;;;;;3.97;2.10;;;;;;;;;;20743812;28;20199;-72
2022/03/21 23:59:09;;;;;;;3.73;1.93;;;;;;;;;;20742888;28;20277;-73
